YPPD/PHE METAR and TAF weather

Enter ICAO airport designator
Station Type Date Time Source
YPPD METAR 2020/04/03 07:30 UTC NOAA

YPPD 030730Z AUTO 34011KT 9999 // NCD 37/14 Q1006 RF00.0/000.0


Station Type Date Time Source
YPPD Decoded METAR 2020/04/03 07:30 UTC NOAA

Port Hedland Pardoo, Australia (YPPD) 20-06S 119-34E 10M
Apr 03, 2020 - 03:30 AM EDT / 2020.04.03 0730 UTC
Wind: from the NNW (340 degrees) at 13 MPH (11 KT):0
Visibility: greater than 7 mile(s):0
Temperature: 98 F (37 C)
Heat index: 96.8 F (36.0 C):1
Dew Point: 57 F (14 C)
Relative Humidity: 25%
Pressure (altimeter): 29.71 in. Hg (1006 hPa)
ob: YPPD 030730Z AUTO 34011KT 9999 // NCD 37/14 Q1006 RF00.0/000.0
cycle: 7

Station Type Date Time Source
YPPD TAF 2020/04/03 06:36 UTC NOAA

TAF YPPD 030527Z 0306/0406 36012KT CAVOK
FM031000 28006KT CAVOK
FM040000 09012KT CAVOK
FM040300 02011KT CAVOK

Example: see airport list